Prima Donna — OH2219 — position and weather

sailwx.info

Track history (hours):
 
Tides and Currents Weather Stations Pressure Air Temp Water Temp Dewpoint Dewpoint Depression Visibility Wind Speed Wind Dir Waves Ship Positions

Prima Donna

Last reported at 2017-Aug-21 14:00 UTC. Time now 2017-Nov-24 16:22 UTC.
Position N 39°10' W 009°32'.
Warning: this ship's position is months out of date.

Length 15 m.

Type: Sailing vessel. MMSI: 230044860.

Date/timePositionNaut miles runAvg speedWind from/ knotsBaromVisibWave heightAir tempDewpointWater temp
2017-Aug-21 14:00N 39°10' W 009°32'4 7.5
2017-Aug-21 13:29N 39°06' W 009°33'3 7.0
2017-Aug-21 13:00N 39°02' W 009°33'3 7.0
2017-Aug-21 12:30N 38°59' W 009°34'4 7.1
2017-Aug-21 12:00N 38°55' W 009°34'4 7.3
2017-Aug-21 11:30N 38°52' W 009°34'4 7.2
2017-Aug-21 11:00N 38°48' W 009°34'4 7.7
2017-Aug-21 10:30N 38°44' W 009°33'4 7.5
2017-Aug-21 10:00N 38°41' W 009°31'4 6.9
2017-Aug-21 09:30N 38°40' W 009°27'2 4.7
2017-Aug-21 08:59N 38°41' W 009°24'1 0.5
2017-Aug-21 07:57N 38°41' W 009°25'0 0.0
2017-Aug-21 07:12N 38°41' W 009°25'0 0.0
2017-Aug-21 06:15N 38°41' W 009°25'0 0.0
2017-Aug-21 05:51N 38°41' W 009°25'0 0.0
2017-Aug-21 04:09N 38°41' W 009°25'0 0.0
2017-Aug-21 04:00N 38°41' W 009°25'0 0.0
2017-Aug-21 02:24N 38°41' W 009°25'0 0.0
2017-Aug-21 01:48N 38°41' W 009°25'0 0.0
2017-Aug-21 01:30N 38°41' W 009°25'0 0.0
2017-Aug-20 22:45N 38°41' W 009°25'0 0.0
2017-Aug-20 21:12N 38°41' W 009°25'0 0.0
2017-Aug-20 20:45N 38°41' W 009°25'0 0.0
2017-Aug-20 20:30N 38°41' W 009°25'0 0.0
2017-Aug-20 16:54N 38°41' W 009°25'0 0.0
2017-Aug-20 16:21N 38°41' W 009°25'0 0.0
2017-Aug-20 14:33N 38°41' W 009°25'0 0.0
2017-Aug-20 14:03N 38°41' W 009°25'0 0.0
2017-Aug-20 13:57N 38°41' W 009°25'0 0.0
2017-Aug-20 09:27N 38°41' W 009°25'0 0.0
2017-Aug-20 07:48N 38°41' W 009°25'0 0.0
2017-Aug-20 06:39N 38°41' W 009°25'0 0.0
2017-Aug-20 06:27N 38°41' W 009°25'0 0.0
2017-Aug-20 05:57N 38°41' W 009°25'0 0.0
2017-Aug-20 05:30N 38°41' W 009°25'0 0.0
2017-Aug-20 05:00N 38°41' W 009°25'0 0.0
2017-Aug-20 04:30N 38°41' W 009°25'0 0.0
2017-Aug-20 04:00N 38°41' W 009°25'0 0.0
2017-Aug-20 02:51N 38°41' W 009°25'0 0.0
2017-Aug-20 02:18N 38°41' W 009°25'0 0.0
2017-Aug-20 02:00N 38°41' W 009°25'0 0.0
2017-Aug-20 01:09N 38°41' W 009°25'0 0.0
2017-Aug-20 00:48N 38°41' W 009°25'0 0.0
2017-Aug-20 00:27N 38°41' W 009°25'0 0.0
2017-Aug-19 23:54N 38°41' W 009°25'0 0.0
2017-Aug-19 23:24N 38°41' W 009°25'0 0.0
2017-Aug-19 22:45N 38°41' W 009°25'0 0.0
2017-Aug-19 22:00N 38°41' W 009°25'0 0.0
2017-Aug-19 17:48N 38°41' W 009°25'0 0.0
2017-Aug-19 11:15N 38°41' W 009°25'0 0.0
2017-Aug-19 07:12N 38°41' W 009°25'0 0.0
2017-Aug-19 06:57N 38°41' W 009°25'0 0.0
2017-Aug-18 11:09N 38°41' W 009°25'0 0.0
2017-Aug-18 10:48N 38°41' W 009°25'0 0.0
2017-Aug-18 10:24N 38°41' W 009°25'0 0.0
2017-Aug-18 09:42N 38°41' W 009°25'0 0.0
2017-Aug-18 02:54N 38°41' W 009°25'0 0.0
2017-Aug-18 02:18N 38°41' W 009°25'0 0.0
2017-Aug-18 01:48N 38°41' W 009°25'0 0.0
2017-Aug-18 01:06N 38°41' W 009°25'0 0.0
2017-Aug-17 23:00N 38°41' W 009°25'0 0.0
2017-Aug-17 21:57N 38°41' W 009°25'0 0.0
2017-Aug-17 20:12N 38°41' W 009°25'0 0.0
2017-Aug-17 16:48N 38°41' W 009°25'0 0.0
2017-Aug-17 10:33N 38°41' W 009°25'0 0.0
2017-Aug-17 10:18N 38°41' W 009°25'0 0.0
2017-Aug-17 09:48N 38°41' W 009°25'0 0.0
2017-Aug-17 08:48N 38°41' W 009°25'0 0.0
2017-Aug-17 06:03N 38°41' W 009°25'0 0.0
2017-Aug-17 05:57N 38°41' W 009°25'0 0.0
2017-Aug-17 02:48N 38°41' W 009°25'0 0.0
2017-Aug-17 00:33N 38°41' W 009°25'0 0.0
2017-Aug-17 00:21N 38°41' W 009°25'0 0.0
2017-Aug-16 23:51N 38°41' W 009°25'0 0.0
2017-Aug-16 22:48N 38°41' W 009°25'0 0.0
2017-Aug-16 22:06N 38°41' W 009°25'0 0.0
2017-Aug-16 19:00N 38°41' W 009°25'0 0.0
2017-Aug-16 17:48N 38°41' W 009°25'0 0.0
2017-Aug-16 17:15N 38°41' W 009°25'0 0.0
2017-Aug-16 14:12N 38°41' W 009°25'0 0.0
2017-Aug-16 13:15N 38°41' W 009°25'0 0.0
2017-Aug-16 11:48N 38°41' W 009°25'0 0.0
2017-Aug-16 09:06N 38°41' W 009°25'0 0.0
2017-Aug-16 09:00N 38°41' W 009°25'0 0.0
2017-Aug-16 05:00N 38°41' W 009°25'0 0.0
2017-Aug-16 04:21N 38°41' W 009°25'0 0.0
2017-Aug-16 02:57N 38°41' W 009°25'0 0.0
2017-Aug-15 23:33N 38°41' W 009°25'0 0.0
2017-Aug-15 23:15N 38°41' W 009°25'0 0.0
2017-Aug-15 13:54N 38°41' W 009°25'0 0.0
2017-Aug-15 08:33N 38°41' W 009°25'0 0.0
2017-Aug-15 03:48N 38°41' W 009°25'0 0.0
2017-Aug-15 00:21N 38°41' W 009°25'0 0.0
2017-Aug-14 14:10N 38°41' W 009°25'0 0.0
2017-Aug-14 13:43N 38°41' W 009°25'0 0.0
2017-Aug-14 13:28N 38°41' W 009°25'0 0.0
2017-Aug-14 12:58N 38°41' W 009°25'0 0.0
2017-Aug-14 09:31N 38°41' W 009°25'0 0.0
2017-Aug-14 09:13N 38°41' W 009°25'0 0.0
2017-Aug-14 07:58N 38°41' W 009°25'0 0.0
2017-Aug-14 07:16N 38°41' W 009°25'0 0.0
2017-Aug-14 03:10N 38°41' W 009°25'0 0.0
2017-Aug-13 20:46N 38°41' W 009°25'0 0.0
2017-Aug-13 20:19N 38°41' W 009°25'0 0.0
2017-Aug-13 19:55N 38°41' W 009°25'0 0.0
2017-Aug-13 18:37N 38°41' W 009°25'0 0.0
2017-Aug-13 17:31N 38°41' W 009°25'0 0.0
2017-Aug-13 17:25N 38°41' W 009°25'0 0.0
2017-Aug-13 16:25N 38°41' W 009°25'0 0.1
2017-Aug-13 15:57N 38°41' W 009°25'0 0.2
2017-Aug-13 14:51N 38°42' W 009°25'1 2.6
2017-Aug-13 14:30N 38°41' W 009°24'4 6.7
2017-Aug-13 13:58N 38°38' W 009°22'3 5.7
2017-Aug-13 13:30N 38°35' W 009°21'3 6.3
2017-Aug-13 13:00N 38°32' W 009°20'3 6.4
2017-Aug-13 12:30N 38°29' W 009°18'3 6.5
2017-Aug-13 12:00N 38°26' W 009°16'3 6.8
2017-Aug-13 11:30N 38°23' W 009°15'3 7.0
2017-Aug-13 11:00N 38°20' W 009°14'3 6.7
2017-Aug-13 10:30N 38°17' W 009°12'3 6.5
2017-Aug-13 10:00N 38°14' W 009°10'3 6.9
2017-Aug-13 09:30N 38°11' W 009°09'3 7.0
2017-Aug-13 09:00N 38°07' W 009°07'4 7.4
2017-Aug-13 08:30N 38°04' W 009°05'3 6.8
2017-Aug-13 08:00N 38°01' W 009°04'3 6.2
2017-Aug-13 07:30N 37°58' W 009°03'3 6.3
2017-Aug-13 07:00N 37°54' W 009°02'3 6.5
2017-Aug-13 06:30N 37°51' W 009°02'3 6.2
2017-Aug-13 05:59N 37°48' W 009°02'4 6.4
2017-Aug-13 05:25N 37°44' W 009°01'46 6.2
2017-Aug-12 22:00N 36°59' W 008°57'3 6.7
2017-Aug-12 21:29N 36°58' W 008°53'  
Track history (hours):
 
Tides and Currents Weather Stations Pressure Air Temp Water Temp Dewpoint Dewpoint Depression Visibility Wind Speed Wind Dir Waves Ship Positions

Prima Donna

Last reported at 2017-Aug-21 14:00 UTC. Time now 2017-Nov-24 16:22 UTC.
Position N 39°10' W 009°32'.
Warning: this ship's position is months out of date.

Length 15 m.

Type: Sailing vessel. MMSI: 230044860.

Date/timePositionNaut miles runAvg speedWind from/ knotsBaromVisibWave heightAir tempDewpointWater temp
2017-Aug-21 14:00N 39°10' W 009°32'4 7.5
2017-Aug-21 13:29N 39°06' W 009°33'3 7.0
2017-Aug-21 13:00N 39°02' W 009°33'3 7.0
2017-Aug-21 12:30N 38°59' W 009°34'4 7.1
2017-Aug-21 12:00N 38°55' W 009°34'4 7.3
2017-Aug-21 11:30N 38°52' W 009°34'4 7.2
2017-Aug-21 11:00N 38°48' W 009°34'4 7.7
2017-Aug-21 10:30N 38°44' W 009°33'4 7.5
2017-Aug-21 10:00N 38°41' W 009°31'4 6.9
2017-Aug-21 09:30N 38°40' W 009°27'2 4.7
2017-Aug-21 08:59N 38°41' W 009°24'1 0.5
2017-Aug-21 07:57N 38°41' W 009°25'0 0.0
2017-Aug-21 07:12N 38°41' W 009°25'0 0.0
2017-Aug-21 06:15N 38°41' W 009°25'0 0.0
2017-Aug-21 05:51N 38°41' W 009°25'0 0.0
2017-Aug-21 04:09N 38°41' W 009°25'0 0.0
2017-Aug-21 04:00N 38°41' W 009°25'0 0.0
2017-Aug-21 02:24N 38°41' W 009°25'0 0.0
2017-Aug-21 01:48N 38°41' W 009°25'0 0.0
2017-Aug-21 01:30N 38°41' W 009°25'0 0.0
2017-Aug-20 22:45N 38°41' W 009°25'0 0.0
2017-Aug-20 21:12N 38°41' W 009°25'0 0.0
2017-Aug-20 20:45N 38°41' W 009°25'0 0.0
2017-Aug-20 20:30N 38°41' W 009°25'0 0.0
2017-Aug-20 16:54N 38°41' W 009°25'0 0.0
2017-Aug-20 16:21N 38°41' W 009°25'0 0.0
2017-Aug-20 14:33N 38°41' W 009°25'0 0.0
2017-Aug-20 14:03N 38°41' W 009°25'0 0.0
2017-Aug-20 13:57N 38°41' W 009°25'0 0.0
2017-Aug-20 09:27N 38°41' W 009°25'0 0.0
2017-Aug-20 07:48N 38°41' W 009°25'0 0.0
2017-Aug-20 06:39N 38°41' W 009°25'0 0.0
2017-Aug-20 06:27N 38°41' W 009°25'0 0.0
2017-Aug-20 05:57N 38°41' W 009°25'0 0.0
2017-Aug-20 05:30N 38°41' W 009°25'0 0.0
2017-Aug-20 05:00N 38°41' W 009°25'0 0.0
2017-Aug-20 04:30N 38°41' W 009°25'0 0.0
2017-Aug-20 04:00N 38°41' W 009°25'0 0.0
2017-Aug-20 02:51N 38°41' W 009°25'0 0.0
2017-Aug-20 02:18N 38°41' W 009°25'0 0.0
2017-Aug-20 02:00N 38°41' W 009°25'0 0.0
2017-Aug-20 01:09N 38°41' W 009°25'0 0.0
2017-Aug-20 00:48N 38°41' W 009°25'0 0.0
2017-Aug-20 00:27N 38°41' W 009°25'0 0.0
2017-Aug-19 23:54N 38°41' W 009°25'0 0.0
2017-Aug-19 23:24N 38°41' W 009°25'0 0.0
2017-Aug-19 22:45N 38°41' W 009°25'0 0.0
2017-Aug-19 22:00N 38°41' W 009°25'0 0.0
2017-Aug-19 17:48N 38°41' W 009°25'0 0.0
2017-Aug-19 11:15N 38°41' W 009°25'0 0.0
2017-Aug-19 07:12N 38°41' W 009°25'0 0.0
2017-Aug-19 06:57N 38°41' W 009°25'0 0.0
2017-Aug-18 11:09N 38°41' W 009°25'0 0.0
2017-Aug-18 10:48N 38°41' W 009°25'0 0.0
2017-Aug-18 10:24N 38°41' W 009°25'0 0.0
2017-Aug-18 09:42N 38°41' W 009°25'0 0.0
2017-Aug-18 02:54N 38°41' W 009°25'0 0.0
2017-Aug-18 02:18N 38°41' W 009°25'0 0.0
2017-Aug-18 01:48N 38°41' W 009°25'0 0.0
2017-Aug-18 01:06N 38°41' W 009°25'0 0.0
2017-Aug-17 23:00N 38°41' W 009°25'0 0.0
2017-Aug-17 21:57N 38°41' W 009°25'0 0.0
2017-Aug-17 20:12N 38°41' W 009°25'0 0.0
2017-Aug-17 16:48N 38°41' W 009°25'0 0.0
2017-Aug-17 10:33N 38°41' W 009°25'0 0.0
2017-Aug-17 10:18N 38°41' W 009°25'0 0.0
2017-Aug-17 09:48N 38°41' W 009°25'0 0.0
2017-Aug-17 08:48N 38°41' W 009°25'0 0.0
2017-Aug-17 06:03N 38°41' W 009°25'0 0.0
2017-Aug-17 05:57N 38°41' W 009°25'0 0.0
2017-Aug-17 02:48N 38°41' W 009°25'0 0.0
2017-Aug-17 00:33N 38°41' W 009°25'0 0.0
2017-Aug-17 00:21N 38°41' W 009°25'0 0.0
2017-Aug-16 23:51N 38°41' W 009°25'0 0.0
2017-Aug-16 22:48N 38°41' W 009°25'0 0.0
2017-Aug-16 22:06N 38°41' W 009°25'0 0.0
2017-Aug-16 19:00N 38°41' W 009°25'0 0.0
2017-Aug-16 17:48N 38°41' W 009°25'0 0.0
2017-Aug-16 17:15N 38°41' W 009°25'0 0.0
2017-Aug-16 14:12N 38°41' W 009°25'0 0.0
2017-Aug-16 13:15N 38°41' W 009°25'0 0.0
2017-Aug-16 11:48N 38°41' W 009°25'0 0.0
2017-Aug-16 09:06N 38°41' W 009°25'0 0.0
2017-Aug-16 09:00N 38°41' W 009°25'0 0.0
2017-Aug-16 05:00N 38°41' W 009°25'0 0.0
2017-Aug-16 04:21N 38°41' W 009°25'0 0.0
2017-Aug-16 02:57N 38°41' W 009°25'0 0.0
2017-Aug-15 23:33N 38°41' W 009°25'0 0.0
2017-Aug-15 23:15N 38°41' W 009°25'0 0.0
2017-Aug-15 13:54N 38°41' W 009°25'0 0.0
2017-Aug-15 08:33N 38°41' W 009°25'0 0.0
2017-Aug-15 03:48N 38°41' W 009°25'0 0.0
2017-Aug-15 00:21N 38°41' W 009°25'0 0.0
2017-Aug-14 14:10N 38°41' W 009°25'0 0.0
2017-Aug-14 13:43N 38°41' W 009°25'0 0.0
2017-Aug-14 13:28N 38°41' W 009°25'0 0.0
2017-Aug-14 12:58N 38°41' W 009°25'0 0.0
2017-Aug-14 09:31N 38°41' W 009°25'0 0.0
2017-Aug-14 09:13N 38°41' W 009°25'0 0.0
2017-Aug-14 07:58N 38°41' W 009°25'0 0.0
2017-Aug-14 07:16N 38°41' W 009°25'0 0.0
2017-Aug-14 03:10N 38°41' W 009°25'0 0.0
2017-Aug-13 20:46N 38°41' W 009°25'0 0.0
2017-Aug-13 20:19N 38°41' W 009°25'0 0.0
2017-Aug-13 19:55N 38°41' W 009°25'0 0.0
2017-Aug-13 18:37N 38°41' W 009°25'0 0.0
2017-Aug-13 17:31N 38°41' W 009°25'0 0.0
2017-Aug-13 17:25N 38°41' W 009°25'0 0.0
2017-Aug-13 16:25N 38°41' W 009°25'0 0.1
2017-Aug-13 15:57N 38°41' W 009°25'0 0.2
2017-Aug-13 14:51N 38°42' W 009°25'1 2.6
2017-Aug-13 14:30N 38°41' W 009°24'4 6.7
2017-Aug-13 13:58N 38°38' W 009°22'3 5.7
2017-Aug-13 13:30N 38°35' W 009°21'3 6.3
2017-Aug-13 13:00N 38°32' W 009°20'3 6.4
2017-Aug-13 12:30N 38°29' W 009°18'3 6.5
2017-Aug-13 12:00N 38°26' W 009°16'3 6.8
2017-Aug-13 11:30N 38°23' W 009°15'3 7.0
2017-Aug-13 11:00N 38°20' W 009°14'3 6.7
2017-Aug-13 10:30N 38°17' W 009°12'3 6.5
2017-Aug-13 10:00N 38°14' W 009°10'3 6.9
2017-Aug-13 09:30N 38°11' W 009°09'3 7.0
2017-Aug-13 09:00N 38°07' W 009°07'4 7.4
2017-Aug-13 08:30N 38°04' W 009°05'3 6.8
2017-Aug-13 08:00N 38°01' W 009°04'3 6.2
2017-Aug-13 07:30N 37°58' W 009°03'3 6.3
2017-Aug-13 07:00N 37°54' W 009°02'3 6.5
2017-Aug-13 06:30N 37°51' W 009°02'3 6.2
2017-Aug-13 05:59N 37°48' W 009°02'4 6.4
2017-Aug-13 05:25N 37°44' W 009°01'46 6.2
2017-Aug-12 22:00N 36°59' W 008°57'3 6.7
2017-Aug-12 21:29N 36°58' W 008°53'  

Dump ship's entire track history